createdAt,value
2018-09-05T00:00:10.847Z,5.68
2018-09-05T00:02:37.901Z,5.03
2018-09-05T00:05:06.039Z,5.57
2018-09-05T00:07:33.118Z,5.03
2018-09-05T00:10:00.171Z,5.50
2018-09-05T00:12:27.216Z,5.72
2018-09-05T00:14:54.261Z,5.10
2018-09-05T00:17:40.591Z,4.87
2018-09-05T00:20:26.997Z,5.43
2018-09-05T00:22:55.335Z,5.50
2018-09-05T00:25:22.401Z,6.43
2018-09-05T00:27:49.446Z,4.62
2018-09-05T00:30:17.274Z,5.70
2018-09-05T00:32:44.360Z,6.20
2018-09-05T00:35:11.408Z,7.60
2018-09-05T00:37:38.465Z,6.55
2018-09-05T00:40:05.506Z,7.25
2018-09-05T00:42:32.555Z,7.07
2018-09-05T00:44:59.571Z,8.02
2018-09-05T00:47:26.654Z,7.75
2018-09-05T00:49:53.701Z,8.05
2018-09-05T00:52:20.754Z,8.23
2018-09-05T00:54:47.905Z,8.85
2018-09-05T00:57:14.948Z,9.00
2018-09-05T00:59:41.997Z,9.85
2018-09-05T01:02:09.148Z,9.95
2018-09-05T01:04:36.202Z,9.68
2018-09-05T01:07:03.354Z,10.00
2018-09-05T01:09:30.396Z,9.45
2018-09-05T01:11:58.578Z,9.93
2018-09-05T01:14:25.638Z,9.90
2018-09-05T01:16:52.670Z,10.85
2018-09-05T01:19:20.030Z,10.60
2018-09-05T01:21:47.073Z,8.90
2018-09-05T01:24:14.132Z,10.00
2018-09-05T01:26:41.375Z,8.90
2018-09-05T01:29:08.426Z,9.93
2018-09-05T01:31:35.480Z,9.45
2018-09-05T01:34:02.523Z,9.07
2018-09-05T01:36:29.952Z,9.68
2018-09-05T01:39:15.804Z,9.35
2018-09-05T01:42:00.899Z,9.18
2018-09-05T01:44:27.991Z,9.20
2018-09-05T01:46:55.019Z,9.73
2018-09-05T01:49:22.805Z,9.52
2018-09-05T01:51:49.956Z,9.80
2018-09-05T01:54:18.030Z,9.00
2018-09-05T01:56:45.083Z,8.98
2018-09-05T01:59:12.126Z,9.18
2018-09-05T02:01:39.174Z,8.80
2018-09-05T02:04:06.229Z,9.95
2018-09-05T02:06:33.272Z,9.50
2018-09-05T02:09:00.321Z,8.95
2018-09-05T02:11:27.575Z,10.00
2018-09-05T02:13:55.239Z,9.70
2018-09-05T02:16:22.292Z,9.57
2018-09-05T02:18:49.442Z,9.20
2018-09-05T02:21:16.487Z,9.07
2018-09-05T02:23:43.537Z,9.18
2018-09-05T02:26:10.591Z,9.65
2018-09-05T02:28:37.738Z,9.50
2018-09-05T02:31:04.781Z,9.50
2018-09-05T02:33:31.832Z,9.23
2018-09-05T02:35:58.981Z,9.55
2018-09-05T02:38:26.035Z,9.27
2018-09-05T02:40:53.162Z,9.23
2018-09-05T02:43:20.230Z,9.05
2018-09-05T02:45:47.278Z,9.20
2018-09-05T02:48:14.332Z,10.73
2018-09-05T02:50:41.377Z,9.95
2018-09-05T02:53:08.422Z,9.15
2018-09-05T02:55:35.575Z,9.75
2018-09-05T02:58:02.630Z,9.75
2018-09-05T03:00:29.674Z,9.82
2018-09-05T03:02:56.823Z,9.75
2018-09-05T03:05:25.410Z,8.70
2018-09-05T03:07:52.460Z,9.95
2018-09-05T03:10:19.526Z,9.50
2018-09-05T03:12:46.861Z,9.50
2018-09-05T03:15:13.915Z,9.05
2018-09-05T03:17:41.068Z,9.55
2018-09-05T03:20:09.145Z,9.38
2018-09-05T03:22:36.394Z,10.00
2018-09-05T03:25:03.845Z,10.45
2018-09-05T03:27:30.899Z,9.70
2018-09-05T03:29:58.049Z,9.52
2018-09-05T03:32:26.707Z,9.27
2018-09-05T03:34:53.680Z,9.65
2018-09-05T03:37:20.697Z,9.43
2018-09-05T03:39:47.776Z,9.13
2018-09-05T03:42:14.823Z,9.73
2018-09-05T03:44:41.878Z,10.07
2018-09-05T03:47:09.028Z,9.05
2018-09-05T03:49:56.550Z,8.73
2018-09-05T03:52:41.807Z,9.25
2018-09-05T03:55:08.882Z,9.60
2018-09-05T03:57:36.948Z,9.00
2018-09-05T04:00:04.923Z,9.25
2018-09-05T04:02:31.970Z,8.68
2018-09-05T04:04:59.046Z,8.93
2018-09-05T04:07:26.173Z,9.10
2018-09-05T04:09:53.218Z,9.25
2018-09-05T04:12:20.266Z,8.93
2018-09-05T04:14:47.320Z,8.57
2018-09-05T04:17:14.670Z,8.38
2018-09-05T04:19:41.721Z,8.25
2018-09-05T04:22:10.900Z,8.52
2018-09-05T04:24:37.966Z,8.23
2018-09-05T04:27:05.015Z,8.65
2018-09-05T04:29:32.119Z,8.80
2018-09-05T04:31:59.185Z,8.60
2018-09-05T04:34:26.265Z,8.23
2018-09-05T04:36:54.624Z,8.07
2018-09-05T04:39:22.823Z,8.77
2018-09-05T04:41:49.975Z,8.55
2018-09-05T04:44:16.986Z,8.65
2018-09-05T04:46:44.988Z,8.00
2018-09-05T04:49:12.042Z,8.60
2018-09-05T04:51:39.085Z,8.30
2018-09-05T04:54:06.650Z,7.43
2018-09-05T04:56:33.695Z,8.70
2018-09-05T04:59:03.612Z,8.27
2018-09-05T05:01:30.658Z,8.18
2018-09-05T05:03:57.713Z,7.82
2018-09-05T05:06:24.757Z,8.50
2018-09-05T05:08:51.808Z,8.43
2018-09-05T05:11:19.066Z,7.95
2018-09-05T05:13:46.630Z,9.27
2018-09-05T05:16:13.670Z,8.23
2018-09-05T05:19:02.187Z,8.30
2018-09-05T05:21:30.822Z,8.18
2018-09-05T05:23:57.966Z,8.00
2018-09-05T05:26:25.005Z,8.20
2018-09-05T05:28:52.055Z,8.80
2018-09-05T05:31:19.204Z,8.80
2018-09-05T05:33:46.258Z,7.95
2018-09-05T05:36:13.408Z,8.35
2018-09-05T05:38:40.422Z,8.27
2018-09-05T05:41:07.607Z,8.20
2018-09-05T05:43:34.653Z,8.40
2018-09-05T05:46:02.417Z,8.32
2018-09-05T05:48:29.473Z,8.25
2018-09-05T05:50:56.515Z,8.30
2018-09-05T05:53:23.564Z,7.55
2018-09-05T05:55:50.715Z,7.70
2018-09-05T05:58:17.767Z,7.18
2018-09-05T06:00:44.816Z,7.18
2018-09-05T06:03:11.860Z,6.72
2018-09-05T06:05:38.914Z,7.10
2018-09-05T06:08:05.997Z,7.00
2018-09-05T06:10:33.082Z,7.03
2018-09-05T06:13:00.157Z,7.03
2018-09-05T06:15:47.282Z,5.82
2018-09-05T06:18:31.310Z,6.30
2018-09-05T06:20:59.629Z,6.22
2018-09-05T06:23:26.855Z,6.57
2018-09-05T06:25:53.909Z,6.43
2018-09-05T06:28:20.952Z,6.20
2018-09-05T06:30:48.890Z,6.43
2018-09-05T06:33:16.073Z,6.65
2018-09-05T06:35:43.128Z,6.32
2018-09-05T06:38:10.346Z,5.72
2018-09-05T06:40:37.428Z,5.90
2018-09-05T06:43:04.479Z,5.30
2018-09-05T06:45:31.671Z,5.20
2018-09-05T06:47:58.882Z,4.90
2018-09-05T06:50:26.746Z,4.60
2018-09-05T06:52:53.799Z,4.03
2018-09-05T06:55:20.864Z,5.05
2018-09-05T06:57:47.994Z,4.18
2018-09-05T07:00:37.658Z,4.00
2018-09-05T07:03:04.828Z,4.47
2018-09-05T07:05:33.410Z,3.87
2018-09-05T07:08:00.558Z,4.47
2018-09-05T07:10:27.817Z,4.05
2018-09-05T07:12:55.783Z,3.78
2018-09-05T07:15:22.831Z,3.72
2018-09-05T07:17:49.846Z,3.50
2018-09-05T07:20:17.235Z,3.90
2018-09-05T07:22:45.923Z,5.15
2018-09-05T07:25:12.971Z,11.07
2018-09-05T07:27:39.985Z,12.10
2018-09-05T07:30:06.965Z,4.97
2018-09-05T07:32:34.019Z,6.10
2018-09-05T07:35:01.063Z,5.00
2018-09-05T07:37:29.033Z,4.75
2018-09-05T07:39:56.109Z,5.25
2018-09-05T07:42:23.238Z,4.90
2018-09-05T07:44:50.281Z,4.62
2018-09-05T07:47:17.330Z,4.28
2018-09-05T07:49:44.385Z,4.47
2018-09-05T07:52:11.632Z,4.20
2018-09-05T07:54:38.685Z,3.90
2018-09-05T07:57:05.836Z,3.83
2018-09-05T07:59:52.114Z,3.60
2018-09-05T08:02:19.191Z,3.53
2018-09-05T08:04:46.341Z,3.90
2018-09-05T08:07:13.488Z,3.65
2018-09-05T08:09:40.531Z,3.97
2018-09-05T08:12:08.299Z,3.80
2018-09-05T08:14:35.556Z,3.50
2018-09-05T08:17:03.628Z,4.05
2018-09-05T08:19:30.670Z,3.45
2018-09-05T08:21:57.721Z,3.55
2018-09-05T08:24:24.835Z,3.17
2018-09-05T08:26:51.822Z,3.50
2018-09-05T08:29:18.909Z,3.87
2018-09-05T08:31:46.119Z,3.85
2018-09-05T08:34:13.168Z,3.83
2018-09-05T08:36:42.938Z,3.78
2018-09-05T08:39:10.137Z,3.50
2018-09-05T08:41:37.183Z,3.60
2018-09-05T08:44:04.346Z,3.83
2018-09-05T08:46:31.791Z,3.60
2018-09-05T08:48:58.869Z,3.65
2018-09-05T08:51:27.182Z,3.40
2018-09-05T08:53:54.275Z,3.35
2018-09-05T08:56:21.555Z,3.70
2018-09-05T08:58:48.637Z,4.25
2018-09-05T09:01:15.725Z,4.22
2018-09-05T09:03:42.770Z,4.20
2018-09-05T09:06:10.842Z,5.70
2018-09-05T09:08:38.406Z,5.68
2018-09-05T09:11:05.661Z,6.10
2018-09-05T09:13:32.709Z,5.10
2018-09-05T09:15:59.759Z,5.65
2018-09-05T09:18:27.319Z,5.50
2018-09-05T09:20:54.568Z,5.97
2018-09-05T09:23:21.621Z,5.43
2018-09-05T09:25:48.664Z,6.20
2018-09-05T09:28:15.719Z,6.10
2018-09-05T09:30:42.863Z,6.12
2018-09-05T09:33:10.014Z,5.25
2018-09-05T09:35:51.961Z,5.10
2018-09-05T09:38:38.545Z,5.20
2018-09-05T09:41:29.185Z,5.10
2018-09-05T09:44:16.906Z,5.10
2018-09-05T09:46:44.171Z,5.00
2018-09-05T09:49:11.258Z,4.87
2018-09-05T09:51:38.716Z,5.07
2018-09-05T09:54:07.616Z,5.37
2018-09-05T09:56:35.631Z,5.50
2018-09-05T09:59:02.731Z,5.18
2018-09-05T10:01:30.605Z,5.18
2018-09-05T10:04:17.413Z,4.90
2018-09-05T10:06:51.246Z,5.05
2018-09-05T10:09:18.571Z,4.97
2018-09-05T10:11:45.724Z,4.70
2018-09-05T10:14:12.874Z,4.75
2018-09-05T10:16:39.996Z,5.40
2018-09-05T10:19:07.342Z,4.60
2018-09-05T10:21:34.429Z,4.90
2018-09-05T10:24:01.478Z,5.18
2018-09-05T10:26:28.839Z,4.75
2018-09-05T10:28:55.990Z,5.10
2018-09-05T10:31:23.343Z,4.97
2018-09-05T10:33:50.390Z,4.80
2018-09-05T10:36:17.442Z,5.15
2018-09-05T10:38:44.594Z,6.05
2018-09-05T10:41:17.746Z,5.15
2018-09-05T10:43:45.042Z,5.35
2018-09-05T10:46:12.391Z,4.87
2018-09-05T10:48:39.743Z,4.78
2018-09-05T10:51:07.922Z,4.72
2018-09-05T10:53:35.077Z,4.50
2018-09-05T10:56:03.113Z,4.90
2018-09-05T10:58:30.572Z,4.40
2018-09-05T11:00:58.137Z,4.40
2018-09-05T11:03:25.599Z,4.72
2018-09-05T11:05:52.673Z,4.78
2018-09-05T11:08:19.991Z,5.03
2018-09-05T11:10:47.213Z,5.25
2018-09-05T11:13:14.947Z,4.57
2018-09-05T11:15:43.398Z,4.97
2018-09-05T11:18:10.995Z,4.80
2018-09-05T11:20:38.141Z,5.15
2018-09-05T11:23:05.391Z,4.97
2018-09-05T11:25:32.407Z,4.80
2018-09-05T11:27:59.490Z,4.35
2018-09-05T11:30:27.559Z,4.80
2018-09-05T11:32:54.711Z,4.50
2018-09-05T11:35:21.860Z,5.28
2018-09-05T11:37:49.121Z,5.45
2018-09-05T11:40:17.085Z,5.25
2018-09-05T11:42:44.236Z,6.50
2018-09-05T11:45:11.386Z,6.72
2018-09-05T11:47:38.436Z,5.60
2018-09-05T11:50:05.587Z,4.87
2018-09-05T11:52:32.737Z,4.90
2018-09-05T11:55:00.081Z,5.70
2018-09-05T11:57:27.451Z,5.50
2018-09-05T11:59:59.434Z,5.90
2018-09-05T12:02:26.665Z,5.80
2018-09-05T12:04:53.913Z,5.47
2018-09-05T12:07:22.198Z,5.80
2018-09-05T12:09:49.348Z,5.10
2018-09-05T12:12:16.816Z,5.40
2018-09-05T12:14:44.469Z,5.40
2018-09-05T12:17:11.619Z,5.90
2018-09-05T12:19:39.080Z,6.00
2018-09-05T12:22:06.437Z,4.68
2018-09-05T12:24:34.403Z,5.10
2018-09-05T12:27:01.724Z,5.10
2018-09-05T12:29:28.908Z,4.72
2018-09-05T12:31:56.134Z,5.10
2018-09-05T12:34:23.214Z,4.72
2018-09-05T12:36:51.144Z,4.93
2018-09-05T12:39:18.742Z,5.00
2018-09-05T12:41:45.892Z,5.50
2018-09-05T12:44:13.044Z,5.55
2018-09-05T12:46:40.406Z,4.57
2018-09-05T12:49:07.449Z,5.20
2018-09-05T12:51:35.215Z,5.40
2018-09-05T12:54:03.701Z,5.25
2018-09-05T12:56:30.949Z,4.57
2018-09-05T12:58:58.003Z,5.28
2018-09-05T13:01:25.353Z,5.15
2018-09-05T13:03:52.504Z,5.30
2018-09-05T13:06:20.377Z,4.65
2018-09-05T13:08:47.530Z,4.93
2018-09-05T13:11:14.681Z,5.05
2018-09-05T13:13:41.722Z,4.90
2018-09-05T13:16:09.288Z,5.07
2018-09-05T13:18:36.331Z,4.72
2018-09-05T13:21:03.379Z,5.45
2018-09-05T13:23:30.838Z,5.45
2018-09-05T13:25:58.199Z,5.35
2018-09-05T13:28:25.858Z,5.45
2018-09-05T13:30:52.905Z,5.10
2018-09-05T13:33:20.148Z,5.57
2018-09-05T13:35:47.515Z,5.50
2018-09-05T13:38:35.758Z,5.75
2018-09-05T13:41:02.917Z,5.28
2018-09-05T13:43:30.267Z,5.87
2018-09-05T13:45:57.315Z,4.85
2018-09-05T13:48:24.876Z,5.43
2018-09-05T13:50:52.335Z,5.40
2018-09-05T13:53:20.408Z,5.15
2018-09-05T13:55:47.559Z,5.30
2018-09-05T13:58:15.837Z,6.28
2018-09-05T14:00:42.988Z,6.05
2018-09-05T14:03:10.215Z,5.82
2018-09-05T14:05:38.425Z,6.12
2018-09-05T14:08:06.078Z,5.60
2018-09-05T14:10:33.125Z,4.97
2018-09-05T14:13:00.138Z,5.10
2018-09-05T14:15:27.330Z,5.30
2018-09-05T14:17:54.481Z,4.80
2018-09-05T14:20:21.635Z,5.12
2018-09-05T14:22:49.705Z,5.03
2018-09-05T14:25:16.855Z,5.20
2018-09-05T14:27:45.333Z,5.05
2018-09-05T14:30:12.693Z,5.53
2018-09-05T14:32:39.847Z,5.37
2018-09-05T14:35:06.887Z,5.20
2018-09-05T14:37:34.146Z,4.78
2018-09-05T14:40:01.356Z,5.75
2018-09-05T14:42:28.545Z,5.05
2018-09-05T14:44:55.694Z,4.90
2018-09-05T14:47:22.949Z,5.20
2018-09-05T14:49:49.962Z,5.20
2018-09-05T14:52:17.051Z,5.40
2018-09-05T14:54:45.124Z,5.25
2018-09-05T14:57:12.535Z,5.82
2018-09-05T14:59:39.707Z,5.80
2018-09-05T15:02:07.145Z,5.43
2018-09-05T15:04:34.342Z,5.60
2018-09-05T15:07:03.229Z,5.07
2018-09-05T15:09:30.276Z,5.50
2018-09-05T15:11:57.534Z,5.20
2018-09-05T15:14:25.602Z,5.30
2018-09-05T15:16:52.651Z,5.28
2018-09-05T15:19:40.478Z,5.00
2018-09-05T15:22:27.542Z,6.35
2018-09-05T15:24:54.656Z,5.32
2018-09-05T15:27:21.874Z,5.20
2018-09-05T15:29:48.957Z,4.80
2018-09-05T15:32:16.108Z,5.65
2018-09-05T15:34:43.163Z,5.20
2018-09-05T15:37:10.213Z,5.35
2018-09-05T15:39:37.465Z,5.28
2018-09-05T15:42:05.326Z,5.18
2018-09-05T15:44:32.476Z,4.93
2018-09-05T15:46:59.953Z,5.10
2018-09-05T15:49:27.085Z,5.05
2018-09-05T15:51:54.139Z,4.62
2018-09-05T15:54:21.297Z,5.07
2018-09-05T15:56:48.561Z,4.90
2018-09-05T15:59:15.899Z,4.85
2018-09-05T16:01:42.946Z,4.80
2018-09-05T16:04:10.201Z,5.28
2018-09-05T16:06:37.245Z,4.97
2018-09-05T16:09:06.019Z,5.20
2018-09-05T16:11:33.084Z,5.18
2018-09-05T16:14:00.206Z,4.95
2018-09-05T16:16:27.385Z,4.93
2018-09-05T16:18:54.432Z,4.87
2018-09-05T16:21:21.588Z,4.78
2018-09-05T16:23:48.735Z,5.00
2018-09-05T16:26:16.602Z,5.28
2018-09-05T16:28:44.060Z,5.32
2018-09-05T16:34:11.344Z,4.93
2018-09-05T16:36:38.970Z,5.37
2018-09-05T16:39:06.854Z,5.47
2018-09-05T16:41:35.759Z,5.80
2018-09-05T16:44:21.846Z,5.12
2018-09-05T16:46:49.012Z,5.30
2018-09-05T16:49:16.060Z,5.25
2018-09-05T16:51:44.111Z,4.97
2018-09-05T16:54:12.820Z,5.80
2018-09-05T16:56:41.099Z,5.05
2018-09-05T16:59:08.738Z,5.28
2018-09-05T17:01:35.903Z,5.43
2018-09-05T17:04:03.158Z,5.35
2018-09-05T17:06:30.420Z,5.50
2018-09-05T17:08:57.875Z,5.62
2018-09-05T17:11:24.985Z,5.35
2018-09-05T17:13:52.445Z,5.70
2018-09-05T17:16:19.530Z,5.55
2018-09-05T17:18:46.882Z,5.57
2018-09-05T17:21:14.033Z,5.75
2018-09-05T17:23:41.189Z,5.57
2018-09-05T17:26:09.258Z,5.90
2018-09-05T17:28:36.676Z,5.78
2018-09-05T17:31:05.286Z,5.82
2018-09-05T17:33:33.380Z,6.45
2018-09-05T17:36:00.491Z,6.20
2018-09-05T17:38:28.776Z,6.22
2018-09-05T17:41:06.299Z,6.10
2018-09-05T17:43:34.302Z,6.32
2018-09-05T17:46:02.351Z,6.07
2018-09-05T17:49:00.494Z,6.40
2018-09-05T17:51:27.871Z,6.00
2018-09-05T17:53:54.919Z,7.03
2018-09-05T17:56:22.174Z,6.57
2018-09-05T17:58:49.326Z,7.00
2018-09-05T18:01:16.891Z,7.10
2018-09-05T18:03:44.703Z,7.15
2018-09-05T18:06:12.006Z,6.68
2018-09-05T18:08:39.573Z,7.15
2018-09-05T18:11:06.819Z,6.75
2018-09-05T18:13:34.586Z,7.00
2018-09-05T18:16:02.044Z,7.35
2018-09-05T18:18:29.808Z,7.45
2018-09-05T18:20:57.984Z,7.45
2018-09-05T18:23:35.111Z,7.62
2018-09-05T18:26:02.531Z,8.40
2018-09-05T18:28:32.213Z,8.13
2018-09-05T18:31:01.848Z,8.77
2018-09-05T18:33:33.074Z,8.75
2018-09-05T18:36:01.751Z,8.45
2018-09-05T18:38:29.238Z,9.38
2018-09-05T18:40:57.952Z,9.02
2018-09-05T18:43:25.077Z,8.57
2018-09-05T18:45:54.424Z,9.60
2018-09-05T18:48:26.619Z,9.40
2018-09-05T18:50:58.368Z,9.50
2018-09-05T18:53:37.934Z,8.38
2018-09-05T18:56:07.633Z,8.50
2018-09-05T18:58:38.813Z,9.25
2018-09-05T19:01:09.724Z,9.48
2018-09-05T19:03:39.590Z,9.65
2018-09-05T19:06:09.883Z,8.80
2018-09-05T19:08:52.501Z,9.52
2018-09-05T19:11:25.779Z,9.07
2018-09-05T19:13:54.488Z,9.30
2018-09-05T19:16:25.564Z,8.90
2018-09-05T19:18:53.195Z,9.48
2018-09-05T19:21:22.361Z,8.50
2018-09-05T19:23:50.916Z,11.15
2018-09-05T19:26:24.332Z,10.25
2018-09-05T19:31:39.765Z,9.25
2018-09-05T19:34:09.733Z,10.68
2018-09-05T19:36:40.163Z,10.15
2018-09-05T19:39:08.490Z,9.88
2018-09-05T19:41:38.990Z,9.20
2018-09-05T19:44:09.314Z,9.20
2018-09-05T19:46:36.911Z,11.55
2018-09-05T19:49:05.334Z,11.90
2018-09-05T19:51:33.772Z,12.02
2018-09-05T19:54:06.019Z,11.82
2018-09-05T19:56:33.496Z,14.27
2018-09-05T19:59:02.051Z,12.57
2018-09-05T20:01:32.806Z,14.60
2018-09-05T20:04:00.684Z,13.38
2018-09-05T20:06:28.141Z,15.63
2018-09-05T20:08:56.010Z,16.85
2018-09-05T20:11:25.838Z,14.05
2018-09-05T20:13:55.309Z,17.33
2018-09-05T20:16:23.198Z,16.27
2018-09-05T20:18:50.757Z,16.77
2018-09-05T20:21:19.835Z,18.10
2018-09-05T20:23:51.407Z,13.20
2018-09-05T20:26:20.612Z,12.02
2018-09-05T20:29:00.767Z,10.65
2018-09-05T20:31:29.349Z,12.45
2018-09-05T20:33:57.819Z,13.32
2018-09-05T20:36:24.982Z,15.65
2018-09-05T20:38:55.298Z,15.13
2018-09-05T20:41:26.941Z,12.07
2018-09-05T20:43:55.251Z,13.77
2018-09-05T20:49:10.137Z,14.00
2018-09-05T20:51:38.708Z,15.10
2018-09-05T20:54:09.655Z,13.90
2018-09-05T20:56:41.424Z,22.60
2018-09-05T20:59:09.277Z,18.25
2018-09-05T21:01:37.416Z,19.05
2018-09-05T21:04:04.680Z,21.83
2018-09-05T21:06:31.727Z,20.52
2018-09-05T21:09:00.031Z,21.67
2018-09-05T21:11:27.088Z,15.05
2018-09-05T21:13:54.409Z,15.38
2018-09-05T21:16:21.587Z,18.17
2018-09-05T21:18:48.635Z,21.52
2018-09-05T21:21:15.787Z,20.92
2018-09-05T21:23:42.963Z,21.12
2018-09-05T21:26:10.089Z,23.02
2018-09-05T21:28:37.143Z,21.08
2018-09-05T21:31:04.492Z,20.55
2018-09-05T21:33:31.542Z,19.30
2018-09-05T21:35:58.795Z,20.70
2018-09-05T21:38:26.976Z,20.33
2018-09-05T21:40:54.326Z,17.77
2018-09-05T21:43:21.479Z,23.95
2018-09-05T21:45:48.525Z,23.65
2018-09-05T21:48:15.656Z,21.95
2018-09-05T21:50:42.732Z,21.08
2018-09-05T21:53:09.843Z,20.50
2018-09-05T21:55:36.928Z,22.50
2018-09-05T21:58:04.080Z,23.20
2018-09-05T22:00:32.019Z,22.52
2018-09-05T22:03:03.766Z,21.87
2018-09-05T22:05:31.980Z,22.37
2018-09-05T22:07:59.644Z,23.60
2018-09-05T22:10:27.927Z,23.08
2018-09-05T22:15:31.588Z,19.95
2018-09-05T22:17:59.923Z,19.50
2018-09-05T22:20:27.483Z,20.77
2018-09-05T22:23:01.650Z,21.15
2018-09-05T22:25:35.918Z,21.33
2018-09-05T22:28:08.360Z,19.77
2018-09-05T22:30:37.159Z,22.55
2018-09-05T22:35:37.730Z,22.37
2018-09-05T22:38:06.907Z,20.40
2018-09-05T22:40:41.247Z,20.58
2018-09-05T22:43:28.061Z,20.02
2018-09-05T22:46:01.257Z,19.23
2018-09-05T22:48:30.251Z,19.27
2018-09-05T22:51:16.239Z,19.75
2018-09-05T22:53:58.249Z,19.95
2018-09-05T22:56:40.238Z,20.62
2018-09-05T22:59:07.390Z,20.42
2018-09-05T23:01:37.102Z,20.33
2018-09-05T23:04:05.176Z,19.17
2018-09-05T23:06:32.432Z,18.75
2018-09-05T23:08:59.477Z,19.75
2018-09-05T23:11:26.627Z,21.05
2018-09-05T23:13:59.615Z,20.30
2018-09-05T23:16:26.763Z,20.83
2018-09-05T23:18:53.813Z,20.02
2018-09-05T23:21:20.831Z,20.25
2018-09-05T23:23:49.039Z,19.52
2018-09-05T23:26:16.093Z,21.87
2018-09-05T23:28:44.131Z,17.90
2018-09-05T23:31:11.208Z,18.30
2018-09-05T23:33:39.178Z,20.17
2018-09-05T23:36:06.233Z,19.45
2018-09-05T23:38:33.889Z,17.55
2018-09-05T23:41:01.961Z,18.75
2018-09-05T23:43:29.010Z,21.95
2018-09-05T23:45:56.062Z,23.52
2018-09-05T23:48:23.109Z,20.60
2018-09-05T23:50:50.156Z,19.10
2018-09-05T23:53:17.211Z,18.87
2018-09-05T23:55:44.765Z,20.70
2018-09-05T23:58:11.820Z,20.10
